sensor_id;sensor_type;location;lat;lon;timestamp;temperature;humidity
69823;SHT31;57119;52.516;13.508;2024-01-15T00:01:07;2.26;99.99
69823;SHT31;57119;52.516;13.508;2024-01-15T00:03:32;2.20;99.99
69823;SHT31;57119;52.516;13.508;2024-01-15T00:05:57;2.22;99.99
69823;SHT31;57119;52.516;13.508;2024-01-15T00:08:23;2.23;99.99
69823;SHT31;57119;52.516;13.508;2024-01-15T00:10:48;2.18;99.99
69823;SHT31;57119;52.516;13.508;2024-01-15T00:13:13;2.13;99.99
69823;SHT31;57119;52.516;13.508;2024-01-15T00:15:39;2.09;99.99
69823;SHT31;57119;52.516;13.508;2024-01-15T00:18:05;2.06;99.99
69823;SHT31;57119;52.516;13.508;2024-01-15T00:20:30;2.06;99.99
69823;SHT31;57119;52.516;13.508;2024-01-15T00:22:55;2.08;99.99
69823;SHT31;57119;52.516;13.508;2024-01-15T00:25:21;2.03;99.99
69823;SHT31;57119;52.516;13.508;2024-01-15T00:27:46;2.05;99.99
69823;SHT31;57119;52.516;13.508;2024-01-15T00:30:12;2.06;99.99
69823;SHT31;57119;52.516;13.508;2024-01-15T00:32:37;2.09;99.99
69823;SHT31;57119;52.516;13.508;2024-01-15T00:35:03;2.10;99.99
69823;SHT31;57119;52.516;13.508;2024-01-15T00:37:28;2.10;99.99
69823;SHT31;57119;52.516;13.508;2024-01-15T00:39:54;2.12;99.99
69823;SHT31;57119;52.516;13.508;2024-01-15T00:42:19;2.13;99.99
69823;SHT31;57119;52.516;13.508;2024-01-15T00:44:44;2.16;99.99
69823;SHT31;57119;52.516;13.508;2024-01-15T00:47:10;2.22;99.99
69823;SHT31;57119;52.516;13.508;2024-01-15T00:49:35;2.23;99.99
69823;SHT31;57119;52.516;13.508;2024-01-15T00:52:00;2.16;99.99
69823;SHT31;57119;52.516;13.508;2024-01-15T00:54:26;2.18;99.99
69823;SHT31;57119;52.516;13.508;2024-01-15T00:56:52;2.19;99.99
69823;SHT31;57119;52.516;13.508;2024-01-15T00:59:17;2.12;99.99
69823;SHT31;57119;52.516;13.508;2024-01-15T01:01:43;2.12;99.99
69823;SHT31;57119;52.516;13.508;2024-01-15T01:04:12;2.12;99.99
69823;SHT31;57119;52.516;13.508;2024-01-15T01:06:37;2.08;99.99
69823;SHT31;57119;52.516;13.508;2024-01-15T01:09:03;2.02;99.99
69823;SHT31;57119;52.516;13.508;2024-01-15T01:11:28;1.99;99.99
69823;SHT31;57119;52.516;13.508;2024-01-15T01:13:53;1.99;99.99
69823;SHT31;57119;52.516;13.508;2024-01-15T01:16:19;1.85;99.99
69823;SHT31;57119;52.516;13.508;2024-01-15T01:18:44;1.83;99.99
69823;SHT31;57119;52.516;13.508;2024-01-15T01:21:09;1.77;99.99
69823;SHT31;57119;52.516;13.508;2024-01-15T01:23:35;1.67;99.99
69823;SHT31;57119;52.516;13.508;2024-01-15T01:26:00;1.67;99.99
69823;SHT31;57119;52.516;13.508;2024-01-15T01:28:25;1.62;99.99
69823;SHT31;57119;52.516;13.508;2024-01-15T01:30:51;1.60;99.99
69823;SHT31;57119;52.516;13.508;2024-01-15T01:33:16;1.61;99.99
69823;SHT31;57119;52.516;13.508;2024-01-15T01:35:41;1.61;99.99
69823;SHT31;57119;52.516;13.508;2024-01-15T01:38:07;1.65;99.99
69823;SHT31;57119;52.516;13.508;2024-01-15T01:40:33;1.67;99.99
69823;SHT31;57119;52.516;13.508;2024-01-15T01:42:58;1.68;99.99
69823;SHT31;57119;52.516;13.508;2024-01-15T01:45:23;1.70;99.99
69823;SHT31;57119;52.516;13.508;2024-01-15T01:47:49;1.65;99.99
69823;SHT31;57119;52.516;13.508;2024-01-15T01:50:14;1.67;99.99
69823;SHT31;57119;52.516;13.508;2024-01-15T01:52:40;1.51;99.99
69823;SHT31;57119;52.516;13.508;2024-01-15T01:55:07;1.41;99.99
69823;SHT31;57119;52.516;13.508;2024-01-15T01:57:34;1.31;99.99
69823;SHT31;57119;52.516;13.508;2024-01-15T02:00:01;1.29;99.99
69823;SHT31;57119;52.516;13.508;2024-01-15T02:02:29;1.31;99.99
69823;SHT31;57119;52.516;13.508;2024-01-15T02:04:54;1.34;99.99
69823;SHT31;57119;52.516;13.508;2024-01-15T02:07:20;1.36;99.99
69823;SHT31;57119;52.516;13.508;2024-01-15T02:09:45;1.43;99.99
69823;SHT31;57119;52.516;13.508;2024-01-15T02:12:11;1.46;99.99
69823;SHT31;57119;52.516;13.508;2024-01-15T02:14:36;1.48;99.99
69823;SHT31;57119;52.516;13.508;2024-01-15T02:17:02;1.48;99.99
69823;SHT31;57119;52.516;13.508;2024-01-15T02:19:27;1.44;99.99
69823;SHT31;57119;52.516;13.508;2024-01-15T02:21:52;1.44;99.99
69823;SHT31;57119;52.516;13.508;2024-01-15T02:24:18;1.39;99.99
69823;SHT31;57119;52.516;13.508;2024-01-15T02:26:43;1.41;99.99
69823;SHT31;57119;52.516;13.508;2024-01-15T02:29:09;1.46;99.99
69823;SHT31;57119;52.516;13.508;2024-01-15T02:31:38;1.44;99.99
69823;SHT31;57119;52.516;13.508;2024-01-15T02:34:04;1.39;99.99
69823;SHT31;57119;52.516;13.508;2024-01-15T02:36:29;1.44;99.99
69823;SHT31;57119;52.516;13.508;2024-01-15T02:38:54;1.44;99.99
69823;SHT31;57119;52.516;13.508;2024-01-15T02:41:20;1.47;99.99
69823;SHT31;57119;52.516;13.508;2024-01-15T02:43:45;1.48;99.99
69823;SHT31;57119;52.516;13.508;2024-01-15T02:46:10;1.50;99.99
69823;SHT31;57119;52.516;13.508;2024-01-15T02:48:36;1.51;99.99
69823;SHT31;57119;52.516;13.508;2024-01-15T02:51:01;1.37;99.99
69823;SHT31;57119;52.516;13.508;2024-01-15T02:53:27;1.41;99.99
69823;SHT31;57119;52.516;13.508;2024-01-15T02:55:52;1.48;99.99
69823;SHT31;57119;52.516;13.508;2024-01-15T02:58:18;1.48;99.99
69823;SHT31;57119;52.516;13.508;2024-01-15T03:00:43;1.46;99.99
69823;SHT31;57119;52.516;13.508;2024-01-15T03:03:08;1.47;99.99
69823;SHT31;57119;52.516;13.508;2024-01-15T03:05:34;1.50;99.99
69823;SHT31;57119;52.516;13.508;2024-01-15T03:07:59;1.54;99.99
69823;SHT31;57119;52.516;13.508;2024-01-15T03:10:24;1.55;99.99
69823;SHT31;57119;52.516;13.508;2024-01-15T03:12:50;1.61;99.99
69823;SHT31;57119;52.516;13.508;2024-01-15T03:15:15;1.65;99.99
69823;SHT31;57119;52.516;13.508;2024-01-15T03:17:41;1.65;99.99
69823;SHT31;57119;52.516;13.508;2024-01-15T03:20:08;1.65;99.99
69823;SHT31;57119;52.516;13.508;2024-01-15T03:22:33;1.70;99.99
69823;SHT31;57119;52.516;13.508;2024-01-15T03:24:59;1.74;99.99
69823;SHT31;57119;52.516;13.508;2024-01-15T03:27:24;1.75;99.99
69823;SHT31;57119;52.516;13.508;2024-01-15T03:29:51;1.77;99.99
69823;SHT31;57119;52.516;13.508;2024-01-15T03:32:16;1.77;99.99
69823;SHT31;57119;52.516;13.508;2024-01-15T03:34:42;1.77;99.99
69823;SHT31;57119;52.516;13.508;2024-01-15T03:37:07;1.75;99.99
69823;SHT31;57119;52.516;13.508;2024-01-15T03:39:33;1.75;99.99
69823;SHT31;57119;52.516;13.508;2024-01-15T03:41:58;1.72;99.99
69823;SHT31;57119;52.516;13.508;2024-01-15T03:44:23;1.71;99.99
69823;SHT31;57119;52.516;13.508;2024-01-15T03:46:50;1.72;99.99
69823;SHT31;57119;52.516;13.508;2024-01-15T03:49:15;1.75;99.99
69823;SHT31;57119;52.516;13.508;2024-01-15T03:51:40;1.70;99.99
69823;SHT31;57119;52.516;13.508;2024-01-15T03:54:06;1.70;99.99
69823;SHT31;57119;52.516;13.508;2024-01-15T03:56:31;1.78;99.99
69823;SHT31;57119;52.516;13.508;2024-01-15T03:58:57;1.77;99.99
69823;SHT31;57119;52.516;13.508;2024-01-15T04:01:22;1.79;99.99
69823;SHT31;57119;52.516;13.508;2024-01-15T04:03:48;1.83;99.99
69823;SHT31;57119;52.516;13.508;2024-01-15T04:06:13;1.82;99.99
69823;SHT31;57119;52.516;13.508;2024-01-15T04:08:38;1.83;99.99
69823;SHT31;57119;52.516;13.508;2024-01-15T04:11:04;1.85;99.99
69823;SHT31;57119;52.516;13.508;2024-01-15T04:13:32;1.81;99.99
69823;SHT31;57119;52.516;13.508;2024-01-15T04:15:58;1.79;99.99
69823;SHT31;57119;52.516;13.508;2024-01-15T04:18:23;1.82;99.99
69823;SHT31;57119;52.516;13.508;2024-01-15T04:20:48;1.85;99.99
69823;SHT31;57119;52.516;13.508;2024-01-15T04:23:14;1.91;99.99
69823;SHT31;57119;52.516;13.508;2024-01-15T04:25:39;1.88;99.99
69823;SHT31;57119;52.516;13.508;2024-01-15T04:28:08;1.91;99.99
69823;SHT31;57119;52.516;13.508;2024-01-15T04:30:34;1.92;99.99
69823;SHT31;57119;52.516;13.508;2024-01-15T04:32:59;1.94;99.99
69823;SHT31;57119;52.516;13.508;2024-01-15T04:35:24;1.92;99.99
69823;SHT31;57119;52.516;13.508;2024-01-15T04:37:50;1.98;99.99
69823;SHT31;57119;52.516;13.508;2024-01-15T04:40:15;1.99;99.99
69823;SHT31;57119;52.516;13.508;2024-01-15T04:42:40;2.01;99.99
69823;SHT31;57119;52.516;13.508;2024-01-15T04:45:06;1.99;99.99
69823;SHT31;57119;52.516;13.508;2024-01-15T04:47:31;2.02;99.99
69823;SHT31;57119;52.516;13.508;2024-01-15T04:49:57;2.01;99.99
69823;SHT31;57119;52.516;13.508;2024-01-15T04:52:22;1.98;99.99
69823;SHT31;57119;52.516;13.508;2024-01-15T04:54:48;1.97;99.97
69823;SHT31;57119;52.516;13.508;2024-01-15T04:57:14;1.98;99.99
69823;SHT31;57119;52.516;13.508;2024-01-15T04:59:39;2.03;99.59
69823;SHT31;57119;52.516;13.508;2024-01-15T05:02:05;1.99;99.92
69823;SHT31;57119;52.516;13.508;2024-01-15T05:04:30;2.03;99.69
69823;SHT31;57119;52.516;13.508;2024-01-15T05:06:55;2.06;99.73
69823;SHT31;57119;52.516;13.508;2024-01-15T05:09:21;2.02;99.86
69823;SHT31;57119;52.516;13.508;2024-01-15T05:11:46;2.08;99.24
69823;SHT31;57119;52.516;13.508;2024-01-15T05:14:11;2.09;98.97
69823;SHT31;57119;52.516;13.508;2024-01-15T05:16:46;2.08;99.07
69823;SHT31;57119;52.516;13.508;2024-01-15T05:19:11;2.12;98.89
69823;SHT31;57119;52.516;13.508;2024-01-15T05:21:36;2.10;98.88
69823;SHT31;57119;52.516;13.508;2024-01-15T05:24:02;2.13;99.22
69823;SHT31;57119;52.516;13.508;2024-01-15T05:26:27;2.13;99.50
69823;SHT31;57119;52.516;13.508;2024-01-15T05:28:52;2.16;99.70
69823;SHT31;57119;52.516;13.508;2024-01-15T05:31:18;2.08;99.99
69823;SHT31;57119;52.516;13.508;2024-01-15T05:33:43;2.06;99.99
69823;SHT31;57119;52.516;13.508;2024-01-15T05:36:09;2.08;99.99
69823;SHT31;57119;52.516;13.508;2024-01-15T05:38:34;2.06;99.99
69823;SHT31;57119;52.516;13.508;2024-01-15T05:40:59;2.08;99.99
69823;SHT31;57119;52.516;13.508;2024-01-15T05:43:25;2.06;99.95
69823;SHT31;57119;52.516;13.508;2024-01-15T05:45:50;2.09;99.79
69823;SHT31;57119;52.516;13.508;2024-01-15T05:48:15;2.10;99.92
69823;SHT31;57119;52.516;13.508;2024-01-15T05:50:41;2.09;99.97
69823;SHT31;57119;52.516;13.508;2024-01-15T05:53:07;2.12;99.44
69823;SHT31;57119;52.516;13.508;2024-01-15T05:55:32;2.22;99.42
69823;SHT31;57119;52.516;13.508;2024-01-15T05:57:57;2.23;99.47
69823;SHT31;57119;52.516;13.508;2024-01-15T06:00:23;2.26;99.41
69823;SHT31;57119;52.516;13.508;2024-01-15T06:02:48;2.18;99.99
69823;SHT31;57119;52.516;13.508;2024-01-15T06:05:14;2.03;99.99
69823;SHT31;57119;52.516;13.508;2024-01-15T06:07:39;1.94;99.99
69823;SHT31;57119;52.516;13.508;2024-01-15T06:10:05;1.86;99.99
69823;SHT31;57119;52.516;13.508;2024-01-15T06:12:31;1.89;99.99
69823;SHT31;57119;52.516;13.508;2024-01-15T06:14:57;1.91;99.99
69823;SHT31;57119;52.516;13.508;2024-01-15T06:17:22;1.92;99.99
69823;SHT31;57119;52.516;13.508;2024-01-15T06:19:48;1.95;99.99
69823;SHT31;57119;52.516;13.508;2024-01-15T06:22:13;1.99;99.99
69823;SHT31;57119;52.516;13.508;2024-01-15T06:24:38;1.99;99.99
69823;SHT31;57119;52.516;13.508;2024-01-15T06:27:04;2.02;99.99
69823;SHT31;57119;52.516;13.508;2024-01-15T06:29:30;2.12;99.79
69823;SHT31;57119;52.516;13.508;2024-01-15T06:31:55;2.15;99.75
69823;SHT31;57119;52.516;13.508;2024-01-15T06:34:21;2.22;99.47
69823;SHT31;57119;52.516;13.508;2024-01-15T06:36:46;2.26;99.74
69823;SHT31;57119;52.516;13.508;2024-01-15T06:39:11;2.28;99.56
69823;SHT31;57119;52.516;13.508;2024-01-15T06:41:37;2.28;99.91
69823;SHT31;57119;52.516;13.508;2024-01-15T06:44:11;2.28;99.99
69823;SHT31;57119;52.516;13.508;2024-01-15T06:46:41;2.23;99.99
69823;SHT31;57119;52.516;13.508;2024-01-15T06:49:07;2.22;99.99
69823;SHT31;57119;52.516;13.508;2024-01-15T06:51:32;2.22;99.99
69823;SHT31;57119;52.516;13.508;2024-01-15T06:53:58;2.18;99.99
69823;SHT31;57119;52.516;13.508;2024-01-15T06:56:23;2.18;99.99
69823;SHT31;57119;52.516;13.508;2024-01-15T06:58:48;2.20;99.99
69823;SHT31;57119;52.516;13.508;2024-01-15T07:01:14;2.22;99.99
69823;SHT31;57119;52.516;13.508;2024-01-15T07:03:39;2.23;99.99
69823;SHT31;57119;52.516;13.508;2024-01-15T07:06:05;2.22;99.99
69823;SHT31;57119;52.516;13.508;2024-01-15T07:08:30;2.20;99.99
69823;SHT31;57119;52.516;13.508;2024-01-15T07:10:56;2.23;99.99
69823;SHT31;57119;52.516;13.508;2024-01-15T07:13:21;2.26;99.99
69823;SHT31;57119;52.516;13.508;2024-01-15T07:15:52;2.23;99.99
69823;SHT31;57119;52.516;13.508;2024-01-15T07:18:17;2.22;99.99
69823;SHT31;57119;52.516;13.508;2024-01-15T07:20:43;2.23;99.75
69823;SHT31;57119;52.516;13.508;2024-01-15T07:23:08;2.32;99.66
69823;SHT31;57119;52.516;13.508;2024-01-15T07:25:34;2.36;99.34
69823;SHT31;57119;52.516;13.508;2024-01-15T07:27:59;2.37;99.87
69823;SHT31;57119;52.516;13.508;2024-01-15T07:30:24;2.33;99.81
69823;SHT31;57119;52.516;13.508;2024-01-15T07:32:50;2.33;99.53
69823;SHT31;57119;52.516;13.508;2024-01-15T07:35:16;2.33;99.39
69823;SHT31;57119;52.516;13.508;2024-01-15T07:37:42;2.37;98.91
69823;SHT31;57119;52.516;13.508;2024-01-15T07:40:07;2.34;98.86
69823;SHT31;57119;52.516;13.508;2024-01-15T07:42:34;2.40;98.44
69823;SHT31;57119;52.516;13.508;2024-01-15T07:44:59;2.40;98.70
69823;SHT31;57119;52.516;13.508;2024-01-15T07:47:25;2.50;97.81
69823;SHT31;57119;52.516;13.508;2024-01-15T07:49:51;2.53;97.75
69823;SHT31;57119;52.516;13.508;2024-01-15T07:52:16;2.51;97.90
69823;SHT31;57119;52.516;13.508;2024-01-15T07:54:41;2.54;97.85
69823;SHT31;57119;52.516;13.508;2024-01-15T07:57:07;2.56;97.86
69823;SHT31;57119;52.516;13.508;2024-01-15T07:59:32;2.56;97.97
69823;SHT31;57119;52.516;13.508;2024-01-15T08:01:59;2.51;98.45
69823;SHT31;57119;52.516;13.508;2024-01-15T08:04:24;2.50;98.43
69823;SHT31;57119;52.516;13.508;2024-01-15T08:06:50;2.53;98.23
69823;SHT31;57119;52.516;13.508;2024-01-15T08:09:15;2.57;98.37
69823;SHT31;57119;52.516;13.508;2024-01-15T08:11:41;2.61;97.82
69823;SHT31;57119;52.516;13.508;2024-01-15T08:14:08;2.64;97.57
69823;SHT31;57119;52.516;13.508;2024-01-15T08:16:33;2.65;97.65
69823;SHT31;57119;52.516;13.508;2024-01-15T08:18:59;2.67;97.57
69823;SHT31;57119;52.516;13.508;2024-01-15T08:21:24;2.67;97.21
69823;SHT31;57119;52.516;13.508;2024-01-15T08:23:50;2.64;97.22
69823;SHT31;57119;52.516;13.508;2024-01-15T08:26:15;2.62;98.11
69823;SHT31;57119;52.516;13.508;2024-01-15T08:28:41;2.65;97.64
69823;SHT31;57119;52.516;13.508;2024-01-15T08:31:06;2.65;97.51
69823;SHT31;57119;52.516;13.508;2024-01-15T08:33:31;2.65;97.30
69823;SHT31;57119;52.516;13.508;2024-01-15T08:35:57;2.64;97.27
69823;SHT31;57119;52.516;13.508;2024-01-15T08:38:22;2.71;97.16
69823;SHT31;57119;52.516;13.508;2024-01-15T08:40:49;2.71;97.14
69823;SHT31;57119;52.516;13.508;2024-01-15T08:43:14;2.73;97.11
69823;SHT31;57119;52.516;13.508;2024-01-15T08:45:39;2.70;97.42
69823;SHT31;57119;52.516;13.508;2024-01-15T08:48:05;2.67;97.50
69823;SHT31;57119;52.516;13.508;2024-01-15T08:50:32;2.64;97.65
69823;SHT31;57119;52.516;13.508;2024-01-15T08:52:58;2.67;97.41
69823;SHT31;57119;52.516;13.508;2024-01-15T08:55:24;2.73;97.36
69823;SHT31;57119;52.516;13.508;2024-01-15T08:57:49;2.73;97.21
69823;SHT31;57119;52.516;13.508;2024-01-15T09:00:15;2.67;97.34
69823;SHT31;57119;52.516;13.508;2024-01-15T09:02:41;2.64;97.30
69823;SHT31;57119;52.516;13.508;2024-01-15T09:05:07;2.64;97.27
69823;SHT31;57119;52.516;13.508;2024-01-15T09:07:33;2.64;97.52
69823;SHT31;57119;52.516;13.508;2024-01-15T09:09:58;2.64;97.44
69823;SHT31;57119;52.516;13.508;2024-01-15T09:12:26;2.68;97.54
69823;SHT31;57119;52.516;13.508;2024-01-15T09:14:51;2.68;97.54
69823;SHT31;57119;52.516;13.508;2024-01-15T09:17:18;2.74;98.05
69823;SHT31;57119;52.516;13.508;2024-01-15T09:19:44;2.73;97.32
69823;SHT31;57119;52.516;13.508;2024-01-15T09:22:09;2.70;97.58
69823;SHT31;57119;52.516;13.508;2024-01-15T09:24:35;2.67;98.01
69823;SHT31;57119;52.516;13.508;2024-01-15T09:27:00;2.71;98.23
69823;SHT31;57119;52.516;13.508;2024-01-15T09:29:26;2.71;97.91
69823;SHT31;57119;52.516;13.508;2024-01-15T09:31:51;2.78;97.88
69823;SHT31;57119;52.516;13.508;2024-01-15T09:34:17;2.85;97.49
69823;SHT31;57119;52.516;13.508;2024-01-15T09:36:42;2.84;97.15
69823;SHT31;57119;52.516;13.508;2024-01-15T09:39:08;2.87;97.45
69823;SHT31;57119;52.516;13.508;2024-01-15T09:41:35;2.99;97.31
69823;SHT31;57119;52.516;13.508;2024-01-15T09:44:02;3.08;96.80
69823;SHT31;57119;52.516;13.508;2024-01-15T09:46:28;3.15;96.66
69823;SHT31;57119;52.516;13.508;2024-01-15T09:48:53;4.57;91.82
69823;SHT31;57119;52.516;13.508;2024-01-15T09:51:19;4.39;92.78
69823;SHT31;57119;52.516;13.508;2024-01-15T09:53:46;4.48;91.68
69823;SHT31;57119;52.516;13.508;2024-01-15T09:56:13;4.35;92.41
69823;SHT31;57119;52.516;13.508;2024-01-15T09:58:39;4.01;93.38
69823;SHT31;57119;52.516;13.508;2024-01-15T10:01:07;3.98;93.45
69823;SHT31;57119;52.516;13.508;2024-01-15T10:03:33;3.74;94.57
69823;SHT31;57119;52.516;13.508;2024-01-15T10:05:59;3.39;95.16
69823;SHT31;57119;52.516;13.508;2024-01-15T10:08:25;3.46;95.59
69823;SHT31;57119;52.516;13.508;2024-01-15T10:10:51;3.40;95.68
69823;SHT31;57119;52.516;13.508;2024-01-15T10:13:17;3.32;95.66
69823;SHT31;57119;52.516;13.508;2024-01-15T10:15:45;3.30;96.33
69823;SHT31;57119;52.516;13.508;2024-01-15T10:18:12;3.30;96.00
69823;SHT31;57119;52.516;13.508;2024-01-15T10:20:37;3.33;95.77
69823;SHT31;57119;52.516;13.508;2024-01-15T10:23:03;3.29;95.56
69823;SHT31;57119;52.516;13.508;2024-01-15T10:25:29;3.16;95.99
69823;SHT31;57119;52.516;13.508;2024-01-15T10:28:03;3.27;95.92
69823;SHT31;57119;52.516;13.508;2024-01-15T10:30:30;3.36;95.45
69823;SHT31;57119;52.516;13.508;2024-01-15T10:32:59;3.36;95.51
69823;SHT31;57119;52.516;13.508;2024-01-15T10:35:30;3.35;95.41
69823;SHT31;57119;52.516;13.508;2024-01-15T10:37:56;3.39;95.42
69823;SHT31;57119;52.516;13.508;2024-01-15T10:40:21;3.35;95.71
69823;SHT31;57119;52.516;13.508;2024-01-15T10:42:47;3.32;96.18
69823;SHT31;57119;52.516;13.508;2024-01-15T10:45:13;3.36;96.09
69823;SHT31;57119;52.516;13.508;2024-01-15T10:47:40;3.30;95.48
69823;SHT31;57119;52.516;13.508;2024-01-15T10:50:06;3.26;95.73
69823;SHT31;57119;52.516;13.508;2024-01-15T10:52:34;3.29;96.02
69823;SHT31;57119;52.516;13.508;2024-01-15T10:55:00;3.36;95.66
69823;SHT31;57119;52.516;13.508;2024-01-15T10:57:27;3.30;95.39
69823;SHT31;57119;52.516;13.508;2024-01-15T10:59:53;3.36;95.83
69823;SHT31;57119;52.516;13.508;2024-01-15T11:02:18;3.32;95.82
69823;SHT31;57119;52.516;13.508;2024-01-15T11:04:44;3.37;95.48
69823;SHT31;57119;52.516;13.508;2024-01-15T11:07:10;3.44;95.15
69823;SHT31;57119;52.516;13.508;2024-01-15T11:09:37;3.54;94.78
69823;SHT31;57119;52.516;13.508;2024-01-15T11:12:12;3.84;94.69
69823;SHT31;57119;52.516;13.508;2024-01-15T11:14:45;3.97;93.17
69823;SHT31;57119;52.516;13.508;2024-01-15T11:17:11;3.77;93.78
69823;SHT31;57119;52.516;13.508;2024-01-15T11:19:43;3.67;94.03
69823;SHT31;57119;52.516;13.508;2024-01-15T11:22:47;3.56;94.34
69823;SHT31;57119;52.516;13.508;2024-01-15T11:25:14;3.42;94.93
69823;SHT31;57119;52.516;13.508;2024-01-15T11:27:44;3.37;95.08
69823;SHT31;57119;52.516;13.508;2024-01-15T11:30:11;3.43;95.32
69823;SHT31;57119;52.516;13.508;2024-01-15T11:32:37;3.40;95.29
69823;SHT31;57119;52.516;13.508;2024-01-15T11:35:07;3.40;95.69
69823;SHT31;57119;52.516;13.508;2024-01-15T11:40:21;3.37;96.30
69823;SHT31;57119;52.516;13.508;2024-01-15T11:42:48;3.36;96.16
69823;SHT31;57119;52.516;13.508;2024-01-15T11:45:19;3.32;96.60
69823;SHT31;57119;52.516;13.508;2024-01-15T11:50:32;3.16;97.19
69823;SHT31;57119;52.516;13.508;2024-01-15T11:53:02;3.08;97.36
69823;SHT31;57119;52.516;13.508;2024-01-15T11:55:36;3.05;98.29
69823;SHT31;57119;52.516;13.508;2024-01-15T11:58:08;2.91;99.60
69823;SHT31;57119;52.516;13.508;2024-01-15T12:00:34;2.54;99.99
69823;SHT31;57119;52.516;13.508;2024-01-15T12:03:04;2.25;99.99
69823;SHT31;57119;52.516;13.508;2024-01-15T12:05:30;2.05;99.99
69823;SHT31;57119;52.516;13.508;2024-01-15T12:07:55;1.95;99.99
69823;SHT31;57119;52.516;13.508;2024-01-15T12:10:21;1.98;99.99
69823;SHT31;57119;52.516;13.508;2024-01-15T12:13:07;2.10;99.99
69823;SHT31;57119;52.516;13.508;2024-01-15T12:15:35;2.22;99.99
69823;SHT31;57119;52.516;13.508;2024-01-15T12:18:02;2.26;99.99
69823;SHT31;57119;52.516;13.508;2024-01-15T12:20:31;2.28;99.99
69823;SHT31;57119;52.516;13.508;2024-01-15T12:22:58;2.33;99.99
69823;SHT31;57119;52.516;13.508;2024-01-15T12:25:24;2.32;99.99
69823;SHT31;57119;52.516;13.508;2024-01-15T12:27:50;2.32;99.99
69823;SHT31;57119;52.516;13.508;2024-01-15T12:30:16;2.34;99.99
69823;SHT31;57119;52.516;13.508;2024-01-15T12:32:42;2.33;99.99
69823;SHT31;57119;52.516;13.508;2024-01-15T12:35:10;2.37;99.99
69823;SHT31;57119;52.516;13.508;2024-01-15T12:37:42;2.40;99.99
69823;SHT31;57119;52.516;13.508;2024-01-15T12:40:09;2.44;99.99
69823;SHT31;57119;52.516;13.508;2024-01-15T12:42:41;2.44;99.99
69823;SHT31;57119;52.516;13.508;2024-01-15T12:45:08;2.37;99.99
69823;SHT31;57119;52.516;13.508;2024-01-15T12:47:34;2.22;99.99
69823;SHT31;57119;52.516;13.508;2024-01-15T12:49:59;2.15;99.99
69823;SHT31;57119;52.516;13.508;2024-01-15T12:52:29;2.12;99.99
69823;SHT31;57119;52.516;13.508;2024-01-15T12:54:55;2.10;99.99
69823;SHT31;57119;52.516;13.508;2024-01-15T12:57:20;2.06;99.99
69823;SHT31;57119;52.516;13.508;2024-01-15T12:59:46;2.01;99.99
69823;SHT31;57119;52.516;13.508;2024-01-15T13:02:12;2.02;99.99
69823;SHT31;57119;52.516;13.508;2024-01-15T13:04:38;2.10;99.99
69823;SHT31;57119;52.516;13.508;2024-01-15T13:07:04;2.16;99.99
69823;SHT31;57119;52.516;13.508;2024-01-15T13:09:30;2.25;99.99
69823;SHT31;57119;52.516;13.508;2024-01-15T13:11:55;2.32;99.99
69823;SHT31;57119;52.516;13.508;2024-01-15T13:14:20;2.41;99.99
69823;SHT31;57119;52.516;13.508;2024-01-15T13:16:46;2.41;99.99
69823;SHT31;57119;52.516;13.508;2024-01-15T13:19:11;2.34;99.99
69823;SHT31;57119;52.516;13.508;2024-01-15T13:21:41;2.34;99.99
69823;SHT31;57119;52.516;13.508;2024-01-15T13:24:06;2.34;99.99
69823;SHT31;57119;52.516;13.508;2024-01-15T13:26:33;2.29;99.99
69823;SHT31;57119;52.516;13.508;2024-01-15T13:29:02;2.25;99.99
69823;SHT31;57119;52.516;13.508;2024-01-15T13:31:29;2.29;99.99
69823;SHT31;57119;52.516;13.508;2024-01-15T13:33:55;2.26;99.99
69823;SHT31;57119;52.516;13.508;2024-01-15T13:36:21;2.32;99.99
69823;SHT31;57119;52.516;13.508;2024-01-15T13:38:51;2.33;99.99
69823;SHT31;57119;52.516;13.508;2024-01-15T13:41:17;2.32;99.99
69823;SHT31;57119;52.516;13.508;2024-01-15T13:43:53;2.30;99.99
69823;SHT31;57119;52.516;13.508;2024-01-15T13:46:23;2.33;99.99
69823;SHT31;57119;52.516;13.508;2024-01-15T13:48:48;2.29;99.99
69823;SHT31;57119;52.516;13.508;2024-01-15T13:51:14;2.23;99.99
69823;SHT31;57119;52.516;13.508;2024-01-15T13:53:39;2.10;99.99
69823;SHT31;57119;52.516;13.508;2024-01-15T13:56:06;2.13;99.99
69823;SHT31;57119;52.516;13.508;2024-01-15T13:58:31;2.15;99.99
69823;SHT31;57119;52.516;13.508;2024-01-15T14:00:58;2.16;99.99
69823;SHT31;57119;52.516;13.508;2024-01-15T14:03:23;2.18;99.99
69823;SHT31;57119;52.516;13.508;2024-01-15T14:05:49;2.22;99.99
69823;SHT31;57119;52.516;13.508;2024-01-15T14:08:16;2.28;99.99
69823;SHT31;57119;52.516;13.508;2024-01-15T14:10:42;2.29;99.99
69823;SHT31;57119;52.516;13.508;2024-01-15T14:13:07;2.29;99.99
69823;SHT31;57119;52.516;13.508;2024-01-15T14:15:32;2.33;99.99
69823;SHT31;57119;52.516;13.508;2024-01-15T14:17:58;2.28;99.99
69823;SHT31;57119;52.516;13.508;2024-01-15T14:20:24;2.28;99.99
69823;SHT31;57119;52.516;13.508;2024-01-15T14:22:49;2.28;99.99
69823;SHT31;57119;52.516;13.508;2024-01-15T14:25:14;2.25;99.99
69823;SHT31;57119;52.516;13.508;2024-01-15T14:27:40;2.32;99.99
69823;SHT31;57119;52.516;13.508;2024-01-15T14:30:06;2.26;99.99
69823;SHT31;57119;52.516;13.508;2024-01-15T14:32:33;2.22;99.99
69823;SHT31;57119;52.516;13.508;2024-01-15T14:34:58;2.22;99.99
69823;SHT31;57119;52.516;13.508;2024-01-15T14:37:23;2.23;99.99
69823;SHT31;57119;52.516;13.508;2024-01-15T14:39:49;2.23;99.99
69823;SHT31;57119;52.516;13.508;2024-01-15T14:42:14;2.26;99.99
69823;SHT31;57119;52.516;13.508;2024-01-15T14:44:39;2.22;99.99
69823;SHT31;57119;52.516;13.508;2024-01-15T14:47:06;2.23;99.99
69823;SHT31;57119;52.516;13.508;2024-01-15T14:49:31;2.22;99.99
69823;SHT31;57119;52.516;13.508;2024-01-15T14:51:57;2.23;99.99
69823;SHT31;57119;52.516;13.508;2024-01-15T14:54:22;2.20;99.99
69823;SHT31;57119;52.516;13.508;2024-01-15T14:56:48;2.30;99.99
69823;SHT31;57119;52.516;13.508;2024-01-15T14:59:13;2.23;99.98
69823;SHT31;57119;52.516;13.508;2024-01-15T15:01:39;2.18;99.57
69823;SHT31;57119;52.516;13.508;2024-01-15T15:04:05;2.15;99.72
69823;SHT31;57119;52.516;13.508;2024-01-15T15:06:30;2.12;99.81
69823;SHT31;57119;52.516;13.508;2024-01-15T15:08:56;2.05;99.63
69823;SHT31;57119;52.516;13.508;2024-01-15T15:11:27;2.01;99.89
69823;SHT31;57119;52.516;13.508;2024-01-15T15:13:52;1.98;99.99
69823;SHT31;57119;52.516;13.508;2024-01-15T15:16:17;2.02;99.99
69823;SHT31;57119;52.516;13.508;2024-01-15T15:18:43;1.99;99.99
69823;SHT31;57119;52.516;13.508;2024-01-15T15:21:09;1.98;99.99
69823;SHT31;57119;52.516;13.508;2024-01-15T15:23:35;1.94;99.99
69823;SHT31;57119;52.516;13.508;2024-01-15T15:26:00;1.89;99.99
69823;SHT31;57119;52.516;13.508;2024-01-15T15:28:26;1.83;99.99